createdAt,value
2017-10-18T00:00:20.475Z,13.4
2017-10-18T00:01:22.455Z,13.4
2017-10-18T00:02:24.350Z,13.3
2017-10-18T00:03:26.338Z,13.1
2017-10-18T00:04:28.315Z,13.3
2017-10-18T00:05:30.234Z,13.4
2017-10-18T00:06:32.061Z,13.4
2017-10-18T00:07:33.929Z,13.4
2017-10-18T00:08:35.820Z,13.3
2017-10-18T00:09:37.756Z,13.4
2017-10-18T00:10:39.653Z,13.4
2017-10-18T00:11:41.615Z,13.3
2017-10-18T00:12:43.523Z,13.1
2017-10-18T00:13:45.461Z,12.9
2017-10-18T00:14:47.366Z,13
2017-10-18T00:15:49.207Z,13
2017-10-18T00:16:51.121Z,13
2017-10-18T00:17:52.981Z,13.1
2017-10-18T00:18:54.905Z,13.2
2017-10-18T00:19:56.876Z,13.3
2017-10-18T00:20:58.754Z,13.2
2017-10-18T00:22:00.678Z,13.2
2017-10-18T00:23:02.633Z,13.3
2017-10-18T00:24:04.544Z,13.4
2017-10-18T00:25:06.810Z,13.4
2017-10-18T00:26:08.702Z,13.2
2017-10-18T00:27:10.642Z,13.2
2017-10-18T00:28:12.565Z,13.1
2017-10-18T00:29:14.678Z,13.2
2017-10-18T00:30:16.633Z,13.3
2017-10-18T00:31:18.503Z,13.1
2017-10-18T00:32:20.483Z,13
2017-10-18T00:33:22.416Z,13.1
2017-10-18T00:34:24.347Z,13.2
2017-10-18T00:35:26.263Z,13.1
2017-10-18T00:36:28.295Z,13.1
2017-10-18T00:37:30.368Z,13.1
2017-10-18T00:38:32.298Z,13
2017-10-18T00:39:34.251Z,13.1
2017-10-18T00:40:36.140Z,12.9
2017-10-18T00:41:38.104Z,12.9
2017-10-18T00:42:40.031Z,13
2017-10-18T00:43:41.934Z,13
2017-10-18T00:44:43.860Z,13
2017-10-18T00:45:45.789Z,13.1
2017-10-18T00:46:47.716Z,13
2017-10-18T00:47:49.636Z,13.1
2017-10-18T00:48:51.542Z,13
2017-10-18T00:49:53.464Z,13
2017-10-18T00:50:55.452Z,12.8
2017-10-18T00:51:57.277Z,12.9
2017-10-18T00:52:59.284Z,13
2017-10-18T00:54:01.272Z,12.8
2017-10-18T00:55:03.218Z,12.6
2017-10-18T00:56:05.197Z,12.7
2017-10-18T00:57:07.295Z,12.7
2017-10-18T00:58:09.241Z,12.9
2017-10-18T00:59:11.198Z,12.9
2017-10-18T01:00:13.145Z,12.9
2017-10-18T01:01:15.139Z,13.1
2017-10-18T01:02:17.058Z,13.1
2017-10-18T01:03:19.069Z,13
2017-10-18T01:04:21.030Z,13.1
2017-10-18T01:05:23.018Z,13.1
2017-10-18T01:06:25.336Z,13
2017-10-18T01:07:27.247Z,12.9
2017-10-18T01:08:29.200Z,12.9
2017-10-18T01:09:31.124Z,12.8
2017-10-18T01:10:33.032Z,12.8
2017-10-18T01:11:34.951Z,12.7
2017-10-18T01:12:36.928Z,12.8
2017-10-18T01:13:38.909Z,12.7
2017-10-18T01:14:40.768Z,12.8
2017-10-18T01:15:42.760Z,12.9
2017-10-18T01:16:44.701Z,13.1
2017-10-18T01:17:46.653Z,13.2
2017-10-18T01:18:48.552Z,13.3
2017-10-18T01:19:50.492Z,13.4
2017-10-18T01:20:52.437Z,13.1
2017-10-18T01:21:54.338Z,13
2017-10-18T01:22:56.261Z,13.1
2017-10-18T01:23:58.272Z,13.1
2017-10-18T01:25:00.125Z,13
2017-10-18T01:26:02.079Z,13
2017-10-18T01:27:04.367Z,13
2017-10-18T01:28:06.252Z,12.9
2017-10-18T01:29:08.168Z,13
2017-10-18T01:30:10.165Z,13
2017-10-18T01:31:12.076Z,12.9
2017-10-18T01:32:14.022Z,12.9
2017-10-18T01:33:15.893Z,12.9
2017-10-18T01:34:18.438Z,12.9
2017-10-18T01:35:20.351Z,12.9
2017-10-18T01:36:22.273Z,13
2017-10-18T01:37:24.444Z,13.1
2017-10-18T01:38:26.350Z,12.9
2017-10-18T01:39:28.249Z,12.8
2017-10-18T01:40:30.207Z,12.6
2017-10-18T01:41:32.080Z,12.6
2017-10-18T01:42:34.063Z,12.4
2017-10-18T01:43:35.950Z,12.3
2017-10-18T01:44:37.825Z,12.3
2017-10-18T01:45:39.735Z,12.3
2017-10-18T01:46:41.660Z,12.2
2017-10-18T01:47:43.562Z,12.3
2017-10-18T01:48:45.448Z,12.2
2017-10-18T01:49:47.363Z,12
2017-10-18T01:50:49.259Z,12.1
2017-10-18T01:51:51.176Z,12.2
2017-10-18T01:52:53.205Z,12.3
2017-10-18T01:53:55.081Z,12.2
2017-10-18T01:54:56.995Z,12.2
2017-10-18T01:55:58.967Z,12.2
2017-10-18T01:57:00.896Z,12.4
2017-10-18T01:58:03.058Z,12.5
2017-10-18T01:59:04.972Z,12.4
2017-10-18T02:00:06.906Z,12.2
2017-10-18T02:01:08.818Z,12.2
2017-10-18T02:02:10.774Z,12.1
2017-10-18T02:03:12.690Z,12.2
2017-10-18T02:04:14.548Z,12
2017-10-18T02:05:16.436Z,12
2017-10-18T02:06:18.381Z,11.9
2017-10-18T02:07:20.278Z,12.1
2017-10-18T02:08:22.276Z,12
2017-10-18T02:09:24.240Z,12.1
2017-10-18T02:10:26.180Z,12.3
2017-10-18T02:11:28.028Z,12.3
2017-10-18T02:12:29.946Z,12.5
2017-10-18T02:13:31.867Z,12.7
2017-10-18T02:14:33.942Z,12.5
2017-10-18T02:15:35.860Z,12.5
2017-10-18T02:16:37.707Z,12.5
2017-10-18T02:17:39.626Z,12.4
2017-10-18T02:18:41.560Z,12.4
2017-10-18T02:19:43.407Z,12.5
2017-10-18T02:20:45.291Z,12.3
2017-10-18T02:21:47.211Z,12.4
2017-10-18T02:22:49.127Z,12.2
2017-10-18T02:23:51.048Z,12.1
2017-10-18T02:24:53.041Z,12
2017-10-18T02:25:54.932Z,11.9
2017-10-18T02:26:56.813Z,11.8
2017-10-18T02:27:58.715Z,11.6
2017-10-18T02:29:00.759Z,11.7
2017-10-18T02:30:03.306Z,11.7
2017-10-18T02:31:05.240Z,11.7
2017-10-18T02:32:07.166Z,11.6
2017-10-18T02:33:09.072Z,11.8
2017-10-18T02:34:11.075Z,11.8
2017-10-18T02:35:13.034Z,11.9
2017-10-18T02:36:15.089Z,11.9
2017-10-18T02:37:17.040Z,11.9
2017-10-18T02:38:18.939Z,12
2017-10-18T02:39:20.861Z,12.1
2017-10-18T02:40:22.758Z,12
2017-10-18T02:41:24.672Z,12.1
2017-10-18T02:42:26.617Z,11.9
2017-10-18T02:43:28.613Z,11.9
2017-10-18T02:44:30.549Z,11.9
2017-10-18T02:45:32.453Z,11.8
2017-10-18T02:46:34.370Z,11.9
2017-10-18T02:47:36.251Z,11.9
2017-10-18T02:48:38.186Z,11.8
2017-10-18T02:49:40.347Z,11.8
2017-10-18T02:50:42.259Z,11.8
2017-10-18T02:51:44.294Z,11.8
2017-10-18T02:52:46.237Z,11.9
2017-10-18T02:53:48.176Z,12.1
2017-10-18T02:54:50.082Z,12
2017-10-18T02:55:51.929Z,12.1
2017-10-18T02:56:53.818Z,12.2
2017-10-18T02:57:55.755Z,12.3
2017-10-18T02:58:57.768Z,12.4
2017-10-18T02:59:59.723Z,12.3
2017-10-18T03:01:01.680Z,12.4
2017-10-18T03:02:03.630Z,12.4
2017-10-18T03:03:05.552Z,12.2
2017-10-18T03:04:07.478Z,12.2
2017-10-18T03:05:09.424Z,11.9
2017-10-18T03:06:11.325Z,11.7
2017-10-18T03:07:13.297Z,11.7
2017-10-18T03:08:15.262Z,11.9
2017-10-18T03:09:17.153Z,12
2017-10-18T03:10:19.324Z,12.1
2017-10-18T03:11:21.190Z,12
2017-10-18T03:12:23.084Z,12
2017-10-18T03:13:25.064Z,12
2017-10-18T03:14:26.917Z,12.1
2017-10-18T03:15:28.849Z,12.1
2017-10-18T03:16:30.783Z,12.1
2017-10-18T03:17:32.718Z,12
2017-10-18T03:18:34.684Z,12
2017-10-18T03:19:36.648Z,12
2017-10-18T03:20:38.623Z,11.8
2017-10-18T03:21:40.538Z,11.9
2017-10-18T03:22:42.441Z,11.9
2017-10-18T03:23:44.291Z,11.8
2017-10-18T03:24:46.163Z,11.8
2017-10-18T03:25:48.141Z,11.9
2017-10-18T03:26:50.098Z,11.9
2017-10-18T03:27:51.984Z,11.9
2017-10-18T03:28:54.099Z,11.9
2017-10-18T03:29:55.972Z,11.9
2017-10-18T03:30:57.897Z,11.9
2017-10-18T03:31:59.821Z,11.7
2017-10-18T03:33:01.708Z,11.7
2017-10-18T03:34:03.598Z,11.7
2017-10-18T03:35:05.562Z,11.6
2017-10-18T03:36:07.506Z,11.6
2017-10-18T03:37:09.435Z,11.6
2017-10-18T03:38:11.321Z,11.7
2017-10-18T03:39:13.193Z,11.7
2017-10-18T03:40:15.088Z,11.6
2017-10-18T03:41:17.060Z,11.8
2017-10-18T03:42:19.034Z,11.6
2017-10-18T03:43:21.040Z,11.6
2017-10-18T03:44:22.955Z,11.6
2017-10-18T03:45:24.912Z,11.6
2017-10-18T03:46:26.866Z,11.6
2017-10-18T03:47:28.712Z,11.6
2017-10-18T03:48:30.571Z,11.6
2017-10-18T03:49:32.534Z,11.6
2017-10-18T03:50:34.452Z,11.8
2017-10-18T03:51:36.396Z,11.7
2017-10-18T03:52:38.281Z,11.8
2017-10-18T03:53:40.347Z,11.8
2017-10-18T03:54:42.271Z,11.7
2017-10-18T03:55:44.215Z,11.8
2017-10-18T03:56:46.177Z,11.7
2017-10-18T03:57:48.036Z,11.7
2017-10-18T03:58:49.975Z,11.7
2017-10-18T03:59:51.898Z,11.7
2017-10-18T04:00:53.852Z,11.6
2017-10-18T04:01:55.877Z,11.6
2017-10-18T04:02:57.749Z,11.6
2017-10-18T04:03:59.745Z,11.5
2017-10-18T04:05:01.691Z,11.5
2017-10-18T04:06:03.644Z,11.5
2017-10-18T04:07:05.688Z,11.5
2017-10-18T04:08:07.616Z,11.4
2017-10-18T04:09:09.477Z,11.4
2017-10-18T04:10:11.341Z,11.6
2017-10-18T04:11:14.168Z,11.6
2017-10-18T04:12:16.165Z,11.7
2017-10-18T04:13:18.040Z,11.7
2017-10-18T04:14:19.943Z,11.7
2017-10-18T04:15:21.849Z,11.7
2017-10-18T04:16:24.030Z,11.6
2017-10-18T04:17:25.992Z,11.4
2017-10-18T04:18:27.954Z,11.4
2017-10-18T04:19:30.122Z,11.3
2017-10-18T04:20:32.028Z,11.3
2017-10-18T04:21:33.944Z,11.1
2017-10-18T04:22:35.937Z,11.1
2017-10-18T04:23:37.895Z,10.9
2017-10-18T04:24:39.873Z,11
2017-10-18T04:25:41.945Z,11
2017-10-18T04:26:43.817Z,11
2017-10-18T04:27:45.780Z,11
2017-10-18T04:28:47.741Z,11.2
2017-10-18T04:29:49.648Z,11.1
2017-10-18T04:30:51.542Z,11.2
2017-10-18T04:31:53.462Z,11.2
2017-10-18T04:32:55.634Z,11.3
2017-10-18T04:33:57.474Z,11.2
2017-10-18T04:34:59.393Z,11.2
2017-10-18T04:36:01.356Z,11.2
2017-10-18T04:37:03.304Z,11.4
2017-10-18T04:38:05.247Z,11.4
2017-10-18T04:39:07.200Z,11.3
2017-10-18T04:40:09.159Z,11.2
2017-10-18T04:41:11.053Z,11.1
2017-10-18T04:42:13.001Z,11.2
2017-10-18T04:43:14.960Z,11.2
2017-10-18T04:44:16.879Z,11.1
2017-10-18T04:45:18.818Z,11.1
2017-10-18T04:46:20.768Z,11
2017-10-18T04:47:22.794Z,11.1
2017-10-18T04:48:24.714Z,11.1
2017-10-18T04:49:26.716Z,11.1
2017-10-18T04:50:28.626Z,11
2017-10-18T04:51:30.568Z,11.1
2017-10-18T04:52:32.483Z,11.2
2017-10-18T04:53:34.528Z,11.2
2017-10-18T04:54:36.458Z,11.1
2017-10-18T04:55:38.373Z,11.1
2017-10-18T04:56:41.059Z,11.2
2017-10-18T04:57:43.048Z,11.2
2017-10-18T04:58:45.358Z,11.2
2017-10-18T04:59:47.284Z,11.2
2017-10-18T05:00:49.263Z,11.2
2017-10-18T05:01:51.245Z,11.1
2017-10-18T05:02:53.211Z,11.2
2017-10-18T05:03:55.605Z,11.1
2017-10-18T05:04:57.546Z,11.1
2017-10-18T05:05:59.503Z,11.1
2017-10-18T05:07:01.427Z,11.1
2017-10-18T05:08:03.338Z,11.2
2017-10-18T05:09:05.273Z,11.2
2017-10-18T05:10:07.221Z,11.1
2017-10-18T05:11:09.272Z,11.1
2017-10-18T05:12:11.599Z,11.1
2017-10-18T05:13:13.498Z,11.1
2017-10-18T05:14:15.688Z,11.1
2017-10-18T05:15:17.634Z,11.1
2017-10-18T05:16:19.553Z,11.1
2017-10-18T05:17:21.526Z,11
2017-10-18T05:18:23.518Z,11
2017-10-18T05:19:25.523Z,10.9
2017-10-18T05:20:27.435Z,10.9
2017-10-18T05:21:29.427Z,10.8
2017-10-18T05:22:31.354Z,10.8
2017-10-18T05:23:33.276Z,10.9
2017-10-18T05:24:35.290Z,11
2017-10-18T05:25:37.163Z,11
2017-10-18T05:26:39.127Z,11
2017-10-18T05:27:41.054Z,11
2017-10-18T05:28:42.984Z,11
2017-10-18T05:29:44.951Z,10.9
2017-10-18T05:30:46.942Z,11
2017-10-18T05:31:48.983Z,11
2017-10-18T05:32:50.916Z,10.9
2017-10-18T05:33:52.866Z,10.9
2017-10-18T05:34:54.890Z,10.8
2017-10-18T05:35:56.811Z,10.8
2017-10-18T05:36:58.752Z,10.8
2017-10-18T05:38:00.770Z,10.7
2017-10-18T05:39:02.691Z,10.6
2017-10-18T05:40:04.960Z,10.6
2017-10-18T05:41:06.952Z,10.7
2017-10-18T05:42:08.906Z,10.7
2017-10-18T05:43:10.849Z,10.6
2017-10-18T05:44:12.775Z,10.6
2017-10-18T05:45:14.812Z,10.7
2017-10-18T05:46:16.745Z,10.7
2017-10-18T05:47:18.701Z,10.7
2017-10-18T05:48:20.586Z,10.7
2017-10-18T05:49:22.583Z,10.6
2017-10-18T05:50:24.575Z,10.6
2017-10-18T05:51:26.579Z,10.6
2017-10-18T05:52:28.470Z,10.5
2017-10-18T05:53:30.447Z,10.6
2017-10-18T05:54:32.443Z,10.6
2017-10-18T05:55:34.416Z,10.6
2017-10-18T05:56:36.374Z,10.5
2017-10-18T05:57:38.284Z,10.4
2017-10-18T05:58:40.212Z,10.2
2017-10-18T05:59:42.173Z,10.4
2017-10-18T06:00:44.127Z,10.5
2017-10-18T06:01:47.291Z,10.4
2017-10-18T06:02:49.266Z,10.5
2017-10-18T06:03:51.192Z,10.4
2017-10-18T06:04:53.139Z,10.5
2017-10-18T06:05:55.168Z,10.6
2017-10-18T06:06:57.142Z,10.5
2017-10-18T06:07:59.054Z,10.4
2017-10-18T06:09:01.062Z,10.5
2017-10-18T06:10:03.077Z,10.4
2017-10-18T06:11:05.127Z,10.5
2017-10-18T06:12:07.234Z,10.5
2017-10-18T06:13:09.174Z,10.7
2017-10-18T06:14:11.141Z,10.6
2017-10-18T06:15:13.352Z,10.6
2017-10-18T06:16:15.479Z,10.6
2017-10-18T06:17:17.409Z,10.7
2017-10-18T06:18:19.577Z,10.7
2017-10-18T06:19:21.583Z,10.8
2017-10-18T06:20:23.650Z,10.7
2017-10-18T06:21:25.664Z,10.6
2017-10-18T06:22:27.691Z,10.6
2017-10-18T06:23:29.790Z,10.5
2017-10-18T06:24:31.856Z,10.6
2017-10-18T06:25:33.772Z,10.7
2017-10-18T06:26:35.811Z,10.7
2017-10-18T06:27:37.700Z,10.7
2017-10-18T06:28:39.742Z,10.7
2017-10-18T06:29:41.767Z,10.8
2017-10-18T06:30:43.940Z,10.9
2017-10-18T06:31:46.192Z,10.9
2017-10-18T06:32:48.147Z,11
2017-10-18T06:33:50.039Z,11
2017-10-18T06:34:52.032Z,11
2017-10-18T06:35:53.985Z,11.1
2017-10-18T06:36:56.295Z,11.1
2017-10-18T06:37:58.329Z,11.2
2017-10-18T06:39:00.255Z,11.3
2017-10-18T06:40:02.291Z,11.3
2017-10-18T06:41:04.917Z,11.3
2017-10-18T06:42:06.894Z,11.4
2017-10-18T06:43:08.862Z,11.4
2017-10-18T06:44:10.893Z,11.2
2017-10-18T06:45:12.924Z,11.4
2017-10-18T06:46:14.901Z,11.3
2017-10-18T06:47:16.908Z,11.3
2017-10-18T06:48:18.920Z,11.4
2017-10-18T06:49:20.974Z,11.3
2017-10-18T06:50:23.055Z,11.2
2017-10-18T06:51:25.063Z,11.3
2017-10-18T06:52:27.101Z,11.1
2017-10-18T06:53:29.011Z,11.1
2017-10-18T06:54:31.020Z,11.3
2017-10-18T06:55:33.125Z,11.4
2017-10-18T06:56:35.152Z,11.5
2017-10-18T06:57:37.200Z,11.5
2017-10-18T06:58:39.231Z,11.5
2017-10-18T06:59:41.234Z,11.5
2017-10-18T07:00:43.128Z,11.6
2017-10-18T07:01:45.096Z,11.6
2017-10-18T07:02:47.175Z,11.7
2017-10-18T07:03:49.125Z,11.7
2017-10-18T07:04:51.097Z,11.7
2017-10-18T07:05:53.041Z,11.6
2017-10-18T07:06:55.025Z,11.7
2017-10-18T07:07:56.933Z,11.8
2017-10-18T07:08:58.890Z,11.9
2017-10-18T07:10:00.851Z,11.9
2017-10-18T07:11:02.823Z,12.1
2017-10-18T07:12:04.759Z,12.2
2017-10-18T07:13:07.025Z,12.4
2017-10-18T07:14:09.009Z,12.4
2017-10-18T07:15:10.940Z,12.4
2017-10-18T07:16:12.829Z,12.5
2017-10-18T07:17:14.770Z,12.6
2017-10-18T07:18:16.793Z,12.6
2017-10-18T07:19:18.770Z,12.7
2017-10-18T07:20:20.707Z,12.7
2017-10-18T07:21:22.607Z,12.6
2017-10-18T07:22:24.550Z,12.8
2017-10-18T07:23:26.554Z,12.9
2017-10-18T07:24:28.486Z,12.6
2017-10-18T07:25:30.420Z,12.4
2017-10-18T07:26:32.302Z,12.4
2017-10-18T07:27:34.228Z,12.3
2017-10-18T07:28:36.168Z,12.4
2017-10-18T07:29:38.117Z,12.6
2017-10-18T07:30:40.064Z,12.7
2017-10-18T07:31:41.975Z,12.7
2017-10-18T07:32:43.891Z,12.6
2017-10-18T07:33:45.889Z,12.8
2017-10-18T07:34:47.839Z,12.8
2017-10-18T07:35:49.801Z,12.8
2017-10-18T07:36:51.759Z,12.8
2017-10-18T07:37:53.651Z,12.9
2017-10-18T07:38:55.895Z,13
2017-10-18T07:39:57.786Z,13.1
2017-10-18T07:40:59.679Z,12.9
2017-10-18T07:42:01.672Z,13
2017-10-18T07:43:03.564Z,13.1
2017-10-18T07:44:05.590Z,13
2017-10-18T07:45:07.561Z,13.1
2017-10-18T07:46:09.536Z,13.1
2017-10-18T07:47:11.439Z,13
2017-10-18T07:48:13.415Z,13
2017-10-18T07:49:15.711Z,13
2017-10-18T07:50:17.681Z,13
2017-10-18T07:51:19.629Z,13.1
2017-10-18T07:52:21.503Z,13.2
2017-10-18T07:53:23.458Z,13.3
2017-10-18T07:54:25.730Z,13.4
2017-10-18T07:55:27.667Z,13.5
2017-10-18T07:56:29.604Z,13.5
2017-10-18T07:57:31.500Z,13.6
2017-10-18T07:58:33.465Z,13.8
2017-10-18T07:59:35.449Z,13.8
2017-10-18T08:00:37.368Z,13.9
2017-10-18T08:01:39.307Z,14
2017-10-18T08:02:41.831Z,14
2017-10-18T08:03:43.914Z,13.9
2017-10-18T08:04:46.141Z,13.9
2017-10-18T08:05:48.068Z,13.9
2017-10-18T08:06:49.996Z,13.9
2017-10-18T08:07:52.020Z,13.8
2017-10-18T08:08:54.016Z,13.9
2017-10-18T08:09:56.234Z,14
2017-10-18T08:10:58.136Z,14
2017-10-18T08:12:00.121Z,13.9
2017-10-18T08:13:02.163Z,13.9
2017-10-18T08:14:04.136Z,14.3
2017-10-18T08:15:06.061Z,14.5
2017-10-18T08:16:08.073Z,14.7
2017-10-18T08:17:09.980Z,15.2
2017-10-18T08:18:11.952Z,15.4
2017-10-18T08:19:14.382Z,15.6
2017-10-18T08:20:16.612Z,15.4
2017-10-18T08:21:18.594Z,15.3
2017-10-18T08:22:20.732Z,15.4
2017-10-18T08:23:22.671Z,15.6
2017-10-18T08:24:24.585Z,15.7
2017-10-18T08:25:27.022Z,16
2017-10-18T08:26:28.972Z,15.8
2017-10-18T08:27:30.931Z,16
2017-10-18T08:28:32.943Z,16.4
2017-10-18T08:29:34.921Z,16.3
2017-10-18T08:30:36.865Z,16.6
2017-10-18T08:31:39.064Z,16.4
2017-10-18T08:32:40.939Z,16.4
2017-10-18T08:33:42.947Z,16.5
2017-10-18T08:34:44.871Z,17
2017-10-18T08:35:46.864Z,17
2017-10-18T08:36:48.828Z,17.1
2017-10-18T08:37:50.820Z,17
2017-10-18T08:38:52.723Z,16.9
2017-10-18T08:39:54.691Z,17
2017-10-18T08:40:56.697Z,17.1
2017-10-18T08:41:58.696Z,17.1
2017-10-18T08:43:00.780Z,17.3
2017-10-18T08:44:02.676Z,17.5
2017-10-18T08:45:04.729Z,17.5
2017-10-18T08:46:07.369Z,17.7
2017-10-18T08:47:09.258Z,18
2017-10-18T08:48:11.148Z,18.5
2017-10-18T08:49:13.005Z,19.5
2017-10-18T08:50:14.945Z,19.6
2017-10-18T08:51:16.968Z,19.7
2017-10-18T08:52:18.949Z,19.3
2017-10-18T08:53:20.912Z,19.6
2017-10-18T08:54:22.865Z,19.9
2017-10-18T08:55:24.799Z,19.6
2017-10-18T08:56:26.807Z,19.7
2017-10-18T08:57:28.737Z,20.6
2017-10-18T08:58:30.652Z,21.5
2017-10-18T08:59:32.578Z,22
2017-10-18T09:00:34.619Z,22.3
2017-10-18T09:01:36.491Z,22.5
2017-10-18T09:02:38.452Z,23.5
2017-10-18T09:03:40.371Z,23.4
2017-10-18T09:04:42.300Z,23
2017-10-18T09:05:44.164Z,23.2
2017-10-18T09:06:46.092Z,22.8
2017-10-18T09:07:47.996Z,22.9
2017-10-18T09:08:50.048Z,23.3
2017-10-18T09:09:52.080Z,23.7
2017-10-18T09:10:53.971Z,23.5
2017-10-18T09:11:55.897Z,23.7
2017-10-18T09:12:57.839Z,24.2
2017-10-18T09:13:59.788Z,24.2
2017-10-18T09:15:01.717Z,24.1
2017-10-18T09:16:03.661Z,23.7
2017-10-18T09:17:05.570Z,23.6
2017-10-18T09:18:07.509Z,23.9
2017-10-18T09:19:09.397Z,24.3
2017-10-18T09:20:11.376Z,25.2
2017-10-18T09:21:13.378Z,24.8
2017-10-18T09:22:15.367Z,23.9
2017-10-18T09:23:17.242Z,24.9
2017-10-18T09:24:19.224Z,25.5
2017-10-18T09:25:21.160Z,24.8
2017-10-18T09:26:23.042Z,25.3
2017-10-18T09:27:24.964Z,24.3
2017-10-18T09:28:26.885Z,23
2017-10-18T09:29:28.958Z,22.8
2017-10-18T09:30:30.903Z,23.1
2017-10-18T09:31:32.802Z,22.4
2017-10-18T09:32:35.306Z,23.9
2017-10-18T09:33:37.209Z,23.4
2017-10-18T09:34:39.145Z,24.5
2017-10-18T09:35:41.078Z,23.7
2017-10-18T09:36:43.116Z,24.4
2017-10-18T09:37:45.114Z,24.8
2017-10-18T09:38:47.127Z,26
2017-10-18T09:39:49.182Z,26.4
2017-10-18T09:40:51.082Z,26.8
2017-10-18T09:41:53.025Z,25.9
2017-10-18T09:42:54.953Z,25.4
2017-10-18T09:43:56.988Z,23.8
2017-10-18T09:44:58.935Z,22.5
2017-10-18T09:46:00.888Z,21
2017-10-18T09:47:02.828Z,20.5
2017-10-18T09:48:04.857Z,20.5
2017-10-18T09:49:06.754Z,20.5
2017-10-18T09:50:08.734Z,20.5
2017-10-18T09:51:10.626Z,20.5
2017-10-18T09:52:12.547Z,20.5
2017-10-18T09:53:14.622Z,20.4
2017-10-18T09:54:16.542Z,20.5
2017-10-18T09:55:18.498Z,20.4
2017-10-18T09:56:20.400Z,20.3
2017-10-18T09:57:22.318Z,20.1
2017-10-18T09:58:24.240Z,20.1
2017-10-18T09:59:26.167Z,20.4
2017-10-18T10:00:28.060Z,20.1
2017-10-18T10:01:29.998Z,20.2
2017-10-18T10:02:32.010Z,20.2
2017-10-18T10:03:33.982Z,20.5
2017-10-18T10:04:35.907Z,20.6
2017-10-18T10:05:37.810Z,20.7
2017-10-18T10:06:39.714Z,20.8
2017-10-18T10:07:41.697Z,20.7
2017-10-18T10:08:43.678Z,20.6
2017-10-18T10:09:45.725Z,20.8
2017-10-18T10:10:47.670Z,20.8
2017-10-18T10:11:49.626Z,20.7
2017-10-18T10:12:51.557Z,20.6
2017-10-18T10:13:53.486Z,20.6
2017-10-18T10:14:55.503Z,20.5
2017-10-18T10:15:57.416Z,20.6
2017-10-18T10:16:59.348Z,20.8
2017-10-18T10:18:01.244Z,20.9
2017-10-18T10:19:03.236Z,20.8
2017-10-18T10:20:05.127Z,20.8
2017-10-18T10:21:07.000Z,20.9
2017-10-18T10:22:08.933Z,20.9
2017-10-18T10:23:10.885Z,20.8
2017-10-18T10:24:12.852Z,20.7
2017-10-18T10:25:14.825Z,20.9
2017-10-18T10:26:16.791Z,20.8
2017-10-18T10:27:18.764Z,21
2017-10-18T10:28:20.682Z,20.9
2017-10-18T10:29:22.599Z,21.1
2017-10-18T10:30:24.505Z,21.2
2017-10-18T10:31:26.588Z,21.1
2017-10-18T10:32:28.567Z,21.2
2017-10-18T10:33:30.497Z,21.2
2017-10-18T10:34:32.516Z,21.3
2017-10-18T10:35:34.467Z,21.5
2017-10-18T10:36:36.407Z,21.5
2017-10-18T10:37:38.365Z,21.5
2017-10-18T10:38:40.315Z,21.4
2017-10-18T10:39:42.204Z,21.1
2017-10-18T10:40:44.132Z,21.2
2017-10-18T10:41:45.972Z,21.1
2017-10-18T10:42:47.839Z,21.2
2017-10-18T10:43:49.806Z,21.2
2017-10-18T10:44:51.745Z,21.3
2017-10-18T10:45:53.632Z,21.5
2017-10-18T10:46:55.537Z,21.3
2017-10-18T10:47:57.376Z,21.1
2017-10-18T10:48:59.344Z,20.9
2017-10-18T10:50:01.386Z,20.9
2017-10-18T10:51:03.346Z,20.9
2017-10-18T10:52:05.315Z,20.9
2017-10-18T10:53:07.349Z,21.1
2017-10-18T10:54:09.211Z,20.7
2017-10-18T10:55:11.146Z,20.9
2017-10-18T10:56:13.104Z,21.2
2017-10-18T10:57:15.062Z,20.7
2017-10-18T10:58:17.293Z,20.7
2017-10-18T10:59:19.271Z,20.9
2017-10-18T11:00:21.163Z,20.9
2017-10-18T11:01:23.094Z,21.1
2017-10-18T11:02:25.031Z,21.3
2017-10-18T11:03:26.896Z,21.4
2017-10-18T11:04:28.802Z,21.4
2017-10-18T11:05:30.769Z,21.8
2017-10-18T11:06:32.710Z,21.1
2017-10-18T11:07:34.680Z,21.5
2017-10-18T11:08:36.564Z,21.8
2017-10-18T11:09:38.524Z,21.7
2017-10-18T11:10:40.739Z,21.5
2017-10-18T11:11:42.696Z,21.5
2017-10-18T11:12:44.648Z,21
2017-10-18T11:13:46.616Z,20.8
2017-10-18T11:14:48.575Z,21.2
2017-10-18T11:15:50.756Z,21.2
2017-10-18T11:16:52.926Z,21.1
2017-10-18T11:17:54.899Z,21.3
2017-10-18T11:18:56.873Z,21.1
2017-10-18T11:19:58.798Z,21.6
2017-10-18T11:21:01.144Z,21.9
2017-10-18T11:22:03.090Z,21.9
2017-10-18T11:23:05.050Z,22.1
2017-10-18T11:24:06.919Z,22.2
2017-10-18T11:25:08.821Z,22
2017-10-18T11:26:10.791Z,22.1
2017-10-18T11:27:12.727Z,22.1
2017-10-18T11:28:14.720Z,22.6
2017-10-18T11:29:16.694Z,22.1
2017-10-18T11:30:18.685Z,21.8
2017-10-18T11:31:20.604Z,21.7
2017-10-18T11:32:22.486Z,22
2017-10-18T11:33:24.398Z,22
2017-10-18T11:34:26.533Z,21.7
2017-10-18T11:35:28.531Z,22
2017-10-18T11:36:30.446Z,21.7
2017-10-18T11:37:32.425Z,21.9
2017-10-18T11:38:34.480Z,21.8
2017-10-18T11:39:36.450Z,21.8
2017-10-18T11:40:38.390Z,21.7
2017-10-18T11:41:40.318Z,21.7
2017-10-18T11:42:42.226Z,21.9
2017-10-18T11:43:44.100Z,22
2017-10-18T11:44:45.996Z,21.5
2017-10-18T11:45:47.967Z,22
2017-10-18T11:46:50.068Z,22.2
2017-10-18T11:47:52.013Z,21.9
2017-10-18T11:48:53.938Z,21.9
2017-10-18T11:49:55.883Z,21.9
2017-10-18T11:50:57.818Z,22.1
2017-10-18T11:51:59.787Z,22.1
2017-10-18T11:53:01.760Z,21.8
2017-10-18T11:54:03.660Z,21.9
2017-10-18T11:55:05.586Z,22.2
2017-10-18T11:56:07.495Z,22.2
2017-10-18T11:57:09.471Z,21.7
2017-10-18T11:58:11.399Z,21.7
2017-10-18T11:59:13.316Z,22
2017-10-18T12:00:15.239Z,22.2
2017-10-18T12:01:17.110Z,22
2017-10-18T12:02:19.021Z,21.8
2017-10-18T12:03:21.152Z,21.6
2017-10-18T12:04:23.073Z,22.1
2017-10-18T12:05:25.044Z,21.9
2017-10-18T12:06:26.955Z,22
2017-10-18T12:07:28.994Z,22.1
2017-10-18T12:08:30.911Z,22.2
2017-10-18T12:09:32.925Z,22.3
2017-10-18T12:10:34.858Z,21.8
2017-10-18T12:11:36.785Z,22.1
2017-10-18T12:12:38.680Z,22.1
2017-10-18T12:13:40.644Z,21.7
2017-10-18T12:14:42.659Z,21.7
2017-10-18T12:15:44.601Z,21.6
2017-10-18T12:16:46.529Z,21.3
2017-10-18T12:17:48.480Z,21.3
2017-10-18T12:18:50.401Z,21.6
2017-10-18T12:19:52.355Z,22
2017-10-18T12:20:54.259Z,22
2017-10-18T12:21:56.196Z,22
2017-10-18T12:22:58.129Z,22.2
2017-10-18T12:24:00.090Z,22
2017-10-18T12:25:01.995Z,21.9
2017-10-18T12:26:03.844Z,21.6
2017-10-18T12:27:05.785Z,21.9
2017-10-18T12:28:07.673Z,22
2017-10-18T12:29:09.708Z,22.1
2017-10-18T12:30:11.605Z,22.2
2017-10-18T12:31:13.815Z,22.6
2017-10-18T12:32:15.798Z,22.5
2017-10-18T12:33:17.810Z,22.5
2017-10-18T12:34:19.741Z,22.3
2017-10-18T12:35:21.930Z,22.3
2017-10-18T12:36:23.853Z,22.1
2017-10-18T12:37:25.795Z,22
2017-10-18T12:38:27.721Z,21.8
2017-10-18T12:39:29.646Z,21.8
2017-10-18T12:40:31.539Z,21.4
2017-10-18T12:41:33.434Z,21
2017-10-18T12:42:35.398Z,21.3
2017-10-18T12:43:37.596Z,21.2
2017-10-18T12:44:39.517Z,21.2
2017-10-18T12:45:41.388Z,21.4
2017-10-18T12:46:43.303Z,22
2017-10-18T12:47:45.252Z,22.3
2017-10-18T12:48:47.401Z,21.7
2017-10-18T12:49:49.314Z,21.5
2017-10-18T12:50:51.224Z,21.7
2017-10-18T12:51:53.156Z,22
2017-10-18T12:52:55.184Z,22
2017-10-18T12:53:57.502Z,22.1
2017-10-18T12:54:59.415Z,22
2017-10-18T12:56:01.353Z,22.1
2017-10-18T12:57:03.242Z,22.3
2017-10-18T12:58:05.163Z,22.3
2017-10-18T12:59:07.100Z,22.4
2017-10-18T13:00:09.073Z,22.3
2017-10-18T13:01:11.067Z,22.4
2017-10-18T13:02:13.025Z,22.5
2017-10-18T13:03:14.972Z,22.7
2017-10-18T13:04:16.926Z,22.6
2017-10-18T13:05:18.892Z,22.5
2017-10-18T13:06:20.832Z,22.4
2017-10-18T13:07:22.822Z,22.4
2017-10-18T13:08:24.828Z,22.3
2017-10-18T13:09:26.869Z,22.1
2017-10-18T13:10:28.773Z,21.9
2017-10-18T13:11:30.657Z,21.8
2017-10-18T13:12:32.552Z,21.8
2017-10-18T13:13:34.490Z,21.9
2017-10-18T13:14:36.844Z,22.2
2017-10-18T13:15:38.854Z,22.1
2017-10-18T13:16:40.847Z,21.8
2017-10-18T13:17:42.766Z,21.7
2017-10-18T13:18:44.665Z,21.9
2017-10-18T13:19:46.692Z,22.1
2017-10-18T13:20:48.635Z,22.3
2017-10-18T13:21:50.605Z,22.5
2017-10-18T13:22:52.560Z,22.1
2017-10-18T13:23:54.826Z,22.4
2017-10-18T13:24:56.795Z,22.3
2017-10-18T13:25:58.667Z,22.7
2017-10-18T13:27:00.614Z,22.8
2017-10-18T13:28:02.549Z,22.9
2017-10-18T13:29:04.549Z,22.8
2017-10-18T13:30:06.561Z,22.9
2017-10-18T13:31:08.455Z,22.7
2017-10-18T13:32:10.378Z,22.8
2017-10-18T13:33:12.378Z,22.9
2017-10-18T13:34:14.292Z,22.7
2017-10-18T13:35:16.249Z,22.9
2017-10-18T13:36:18.150Z,23
2017-10-18T13:37:20.066Z,22.6
2017-10-18T13:38:21.993Z,22.5
2017-10-18T13:39:23.904Z,22.7
2017-10-18T13:40:26.450Z,22.8
2017-10-18T13:41:28.371Z,23
2017-10-18T13:42:30.313Z,23
2017-10-18T13:43:32.378Z,22.7
2017-10-18T13:44:34.311Z,22.6
2017-10-18T13:45:36.271Z,22.3
2017-10-18T13:46:38.187Z,22.1
2017-10-18T13:47:40.084Z,22.2
2017-10-18T13:48:42.059Z,22.2
2017-10-18T13:49:44.046Z,22.4
2017-10-18T13:50:45.935Z,22.6
2017-10-18T13:51:47.842Z,22.5